sensor_id;sensor_type;location;lat;lon;timestamp;P1;durP1;ratioP1;P2;durP2;ratioP2
6306;SDS011;3186;54.062;9.962;2023-04-01T00:00:53;12.70;;;9.10;;
6306;SDS011;3186;54.062;9.962;2023-04-01T00:03:20;9.27;;;8.27;;
6306;SDS011;3186;54.062;9.962;2023-04-01T00:05:46;9.33;;;8.30;;
6306;SDS011;3186;54.062;9.962;2023-04-01T00:08:12;11.33;;;9.13;;
6306;SDS011;3186;54.062;9.962;2023-04-01T00:10:38;10.93;;;8.83;;
6306;SDS011;3186;54.062;9.962;2023-04-01T00:13:04;11.93;;;9.27;;
6306;SDS011;3186;54.062;9.962;2023-04-01T00:15:30;11.93;;;9.57;;
6306;SDS011;3186;54.062;9.962;2023-04-01T00:17:56;13.67;;;9.87;;
6306;SDS011;3186;54.062;9.962;2023-04-01T00:20:22;14.00;;;10.10;;
6306;SDS011;3186;54.062;9.962;2023-04-01T00:22:48;13.57;;;10.13;;
6306;SDS011;3186;54.062;9.962;2023-04-01T00:25:15;15.47;;;10.40;;
6306;SDS011;3186;54.062;9.962;2023-04-01T00:27:41;14.10;;;10.53;;
6306;SDS011;3186;54.062;9.962;2023-04-01T00:30:07;14.33;;;9.90;;
6306;SDS011;3186;54.062;9.962;2023-04-01T00:32:33;12.97;;;9.93;;
6306;SDS011;3186;54.062;9.962;2023-04-01T00:34:59;15.20;;;10.37;;
6306;SDS011;3186;54.062;9.962;2023-04-01T00:37:26;15.10;;;11.57;;
6306;SDS011;3186;54.062;9.962;2023-04-01T00:39:52;16.40;;;10.97;;
6306;SDS011;3186;54.062;9.962;2023-04-01T00:42:18;12.90;;;10.83;;
6306;SDS011;3186;54.062;9.962;2023-04-01T00:44:49;17.47;;;11.10;;
6306;SDS011;3186;54.062;9.962;2023-04-01T00:47:17;16.73;;;11.73;;
6306;SDS011;3186;54.062;9.962;2023-04-01T00:49:44;14.70;;;11.43;;
6306;SDS011;3186;54.062;9.962;2023-04-01T00:52:14;13.57;;;10.83;;
6306;SDS011;3186;54.062;9.962;2023-04-01T00:54:44;16.30;;;12.43;;
6306;SDS011;3186;54.062;9.962;2023-04-01T00:57:13;14.90;;;11.13;;
6306;SDS011;3186;54.062;9.962;2023-04-01T00:59:48;15.63;;;11.50;;
6306;SDS011;3186;54.062;9.962;2023-04-01T01:04:47;15.27;;;11.60;;
6306;SDS011;3186;54.062;9.962;2023-04-01T01:15:32;14.10;;;11.13;;
6306;SDS011;3186;54.062;9.962;2023-04-01T01:18:52;18.57;;;13.00;;
6306;SDS011;3186;54.062;9.962;2023-04-01T01:29:11;15.87;;;11.27;;
6306;SDS011;3186;54.062;9.962;2023-04-01T01:37:19;12.77;;;9.80;;
6306;SDS011;3186;54.062;9.962;2023-04-01T01:39:51;12.10;;;9.53;;
6306;SDS011;3186;54.062;9.962;2023-04-01T01:42:21;13.47;;;8.63;;
6306;SDS011;3186;54.062;9.962;2023-04-01T01:44:51;8.53;;;6.97;;
6306;SDS011;3186;54.062;9.962;2023-04-01T01:47:19;9.27;;;6.90;;
6306;SDS011;3186;54.062;9.962;2023-04-01T01:49:46;9.20;;;6.73;;
6306;SDS011;3186;54.062;9.962;2023-04-01T01:52:12;7.30;;;6.00;;
6306;SDS011;3186;54.062;9.962;2023-04-01T01:54:52;8.30;;;6.07;;
6306;SDS011;3186;54.062;9.962;2023-04-01T01:57:25;7.60;;;5.13;;
6306;SDS011;3186;54.062;9.962;2023-04-01T02:00:03;5.30;;;4.30;;
6306;SDS011;3186;54.062;9.962;2023-04-01T02:02:41;5.57;;;4.20;;
6306;SDS011;3186;54.062;9.962;2023-04-01T02:05:10;5.70;;;4.23;;
6306;SDS011;3186;54.062;9.962;2023-04-01T02:07:41;4.60;;;3.40;;
6306;SDS011;3186;54.062;9.962;2023-04-01T02:10:12;4.67;;;3.43;;
6306;SDS011;3186;54.062;9.962;2023-04-01T02:12:39;3.50;;;3.20;;
6306;SDS011;3186;54.062;9.962;2023-04-01T02:15:09;4.67;;;2.67;;
6306;SDS011;3186;54.062;9.962;2023-04-01T02:17:41;4.27;;;2.90;;
6306;SDS011;3186;54.062;9.962;2023-04-01T02:20:16;3.03;;;2.70;;
6306;SDS011;3186;54.062;9.962;2023-04-01T02:22:55;5.23;;;3.07;;
6306;SDS011;3186;54.062;9.962;2023-04-01T02:25:26;3.87;;;2.73;;
6306;SDS011;3186;54.062;9.962;2023-04-01T02:27:56;3.63;;;2.90;;
6306;SDS011;3186;54.062;9.962;2023-04-01T02:30:25;3.67;;;2.93;;
6306;SDS011;3186;54.062;9.962;2023-04-01T02:32:55;4.50;;;2.70;;
6306;SDS011;3186;54.062;9.962;2023-04-01T02:35:22;3.60;;;2.90;;
6306;SDS011;3186;54.062;9.962;2023-04-01T02:37:49;5.00;;;3.33;;
6306;SDS011;3186;54.062;9.962;2023-04-01T02:40:15;3.43;;;3.10;;
6306;SDS011;3186;54.062;9.962;2023-04-01T02:42:43;3.33;;;2.87;;
6306;SDS011;3186;54.062;9.962;2023-04-01T02:45:10;3.27;;;2.83;;
6306;SDS011;3186;54.062;9.962;2023-04-01T02:47:36;2.87;;;2.63;;
6306;SDS011;3186;54.062;9.962;2023-04-01T02:50:02;3.57;;;3.10;;
6306;SDS011;3186;54.062;9.962;2023-04-01T02:52:28;3.93;;;2.80;;
6306;SDS011;3186;54.062;9.962;2023-04-01T02:54:56;3.20;;;2.90;;
6306;SDS011;3186;54.062;9.962;2023-04-01T02:57:23;2.90;;;2.60;;
6306;SDS011;3186;54.062;9.962;2023-04-01T02:59:49;2.90;;;2.60;;
6306;SDS011;3186;54.062;9.962;2023-04-01T03:02:15;3.83;;;2.87;;
6306;SDS011;3186;54.062;9.962;2023-04-01T03:04:42;2.73;;;2.50;;
6306;SDS011;3186;54.062;9.962;2023-04-01T03:07:08;3.03;;;2.53;;
6306;SDS011;3186;54.062;9.962;2023-04-01T03:09:37;2.73;;;2.17;;
6306;SDS011;3186;54.062;9.962;2023-04-01T03:12:04;3.10;;;2.30;;
6306;SDS011;3186;54.062;9.962;2023-04-01T03:14:39;3.00;;;2.40;;
6306;SDS011;3186;54.062;9.962;2023-04-01T03:17:05;3.00;;;2.00;;
6306;SDS011;3186;54.062;9.962;2023-04-01T03:19:31;2.60;;;1.77;;
6306;SDS011;3186;54.062;9.962;2023-04-01T03:21:59;3.47;;;2.23;;
6306;SDS011;3186;54.062;9.962;2023-04-01T03:24:25;2.10;;;1.90;;
6306;SDS011;3186;54.062;9.962;2023-04-01T03:26:51;1.93;;;1.67;;
6306;SDS011;3186;54.062;9.962;2023-04-01T03:29:17;3.40;;;2.07;;
6306;SDS011;3186;54.062;9.962;2023-04-01T03:31:43;2.10;;;1.50;;
6306;SDS011;3186;54.062;9.962;2023-04-01T03:34:09;2.00;;;1.47;;
6306;SDS011;3186;54.062;9.962;2023-04-01T03:36:36;2.07;;;1.70;;
6306;SDS011;3186;54.062;9.962;2023-04-01T03:39:02;1.87;;;1.57;;
6306;SDS011;3186;54.062;9.962;2023-04-01T03:41:38;4.43;;;1.60;;
6306;SDS011;3186;54.062;9.962;2023-04-01T03:44:04;1.60;;;1.40;;
6306;SDS011;3186;54.062;9.962;2023-04-01T03:46:31;1.90;;;1.70;;
6306;SDS011;3186;54.062;9.962;2023-04-01T03:48:57;1.80;;;1.50;;
6306;SDS011;3186;54.062;9.962;2023-04-01T03:51:23;2.10;;;1.90;;
6306;SDS011;3186;54.062;9.962;2023-04-01T03:53:49;3.37;;;1.90;;
6306;SDS011;3186;54.062;9.962;2023-04-01T03:56:15;1.60;;;1.43;;
6306;SDS011;3186;54.062;9.962;2023-04-01T03:58:41;1.53;;;1.43;;
6306;SDS011;3186;54.062;9.962;2023-04-01T04:01:18;2.00;;;1.70;;
6306;SDS011;3186;54.062;9.962;2023-04-01T04:03:52;2.60;;;1.60;;
6306;SDS011;3186;54.062;9.962;2023-04-01T04:06:18;1.60;;;1.30;;
6306;SDS011;3186;54.062;9.962;2023-04-01T04:08:46;2.57;;;1.60;;
6306;SDS011;3186;54.062;9.962;2023-04-01T04:11:12;1.57;;;1.47;;
6306;SDS011;3186;54.062;9.962;2023-04-01T04:13:40;1.83;;;1.43;;
6306;SDS011;3186;54.062;9.962;2023-04-01T04:16:07;2.27;;;1.30;;
6306;SDS011;3186;54.062;9.962;2023-04-01T04:18:36;2.20;;;1.40;;
6306;SDS011;3186;54.062;9.962;2023-04-01T04:21:03;1.20;;;1.10;;
6306;SDS011;3186;54.062;9.962;2023-04-01T04:23:29;1.27;;;1.17;;
6306;SDS011;3186;54.062;9.962;2023-04-01T04:25:57;1.97;;;1.00;;
6306;SDS011;3186;54.062;9.962;2023-04-01T04:28:29;1.40;;;1.30;;
6306;SDS011;3186;54.062;9.962;2023-04-01T04:30:56;2.37;;;1.10;;
6306;SDS011;3186;54.062;9.962;2023-04-01T04:33:23;0.90;;;0.90;;
6306;SDS011;3186;54.062;9.962;2023-04-01T04:35:50;2.00;;;1.30;;
6306;SDS011;3186;54.062;9.962;2023-04-01T04:38:17;2.37;;;1.00;;
6306;SDS011;3186;54.062;9.962;2023-04-01T04:40:43;1.10;;;1.07;;
6306;SDS011;3186;54.062;9.962;2023-04-01T04:43:10;1.53;;;0.90;;
6306;SDS011;3186;54.062;9.962;2023-04-01T04:45:38;1.73;;;1.20;;
6306;SDS011;3186;54.062;9.962;2023-04-01T04:48:05;1.13;;;1.03;;
6306;SDS011;3186;54.062;9.962;2023-04-01T04:50:33;2.20;;;1.00;;
6306;SDS011;3186;54.062;9.962;2023-04-01T04:52:59;1.23;;;0.90;;
6306;SDS011;3186;54.062;9.962;2023-04-01T04:55:25;1.23;;;0.90;;
6306;SDS011;3186;54.062;9.962;2023-04-01T04:58:11;1.70;;;0.90;;
6306;SDS011;3186;54.062;9.962;2023-04-01T05:00:40;1.63;;;1.00;;
6306;SDS011;3186;54.062;9.962;2023-04-01T05:03:10;0.90;;;0.90;;
6306;SDS011;3186;54.062;9.962;2023-04-01T05:05:37;1.67;;;1.00;;
6306;SDS011;3186;54.062;9.962;2023-04-01T05:08:04;1.40;;;0.83;;
6306;SDS011;3186;54.062;9.962;2023-04-01T05:10:30;1.10;;;1.00;;
6306;SDS011;3186;54.062;9.962;2023-04-01T05:12:57;2.03;;;1.00;;
6306;SDS011;3186;54.062;9.962;2023-04-01T05:15:23;1.40;;;1.00;;
6306;SDS011;3186;54.062;9.962;2023-04-01T05:17:49;2.63;;;1.10;;
6306;SDS011;3186;54.062;9.962;2023-04-01T05:20:16;2.40;;;1.20;;
6306;SDS011;3186;54.062;9.962;2023-04-01T05:22:42;1.10;;;1.00;;
6306;SDS011;3186;54.062;9.962;2023-04-01T05:25:09;2.87;;;1.00;;
6306;SDS011;3186;54.062;9.962;2023-04-01T05:27:35;2.13;;;1.10;;
6306;SDS011;3186;54.062;9.962;2023-04-01T05:30:01;1.80;;;0.80;;
6306;SDS011;3186;54.062;9.962;2023-04-01T05:32:53;1.20;;;1.10;;
6306;SDS011;3186;54.062;9.962;2023-04-01T05:35:19;1.20;;;1.10;;
6306;SDS011;3186;54.062;9.962;2023-04-01T05:37:45;2.90;;;1.17;;
6306;SDS011;3186;54.062;9.962;2023-04-01T05:40:11;1.20;;;1.10;;
6306;SDS011;3186;54.062;9.962;2023-04-01T05:42:37;3.30;;;1.40;;
6306;SDS011;3186;54.062;9.962;2023-04-01T05:45:03;2.00;;;1.00;;
6306;SDS011;3186;54.062;9.962;2023-04-01T05:47:48;1.20;;;1.10;;
6306;SDS011;3186;54.062;9.962;2023-04-01T05:50:14;1.80;;;1.10;;
6306;SDS011;3186;54.062;9.962;2023-04-01T05:52:41;3.03;;;0.90;;
6306;SDS011;3186;54.062;9.962;2023-04-01T05:55:07;1.43;;;1.10;;
6306;SDS011;3186;54.062;9.962;2023-04-01T05:57:34;1.20;;;1.10;;
6306;SDS011;3186;54.062;9.962;2023-04-01T06:00:00;2.30;;;1.30;;
6306;SDS011;3186;54.062;9.962;2023-04-01T06:02:26;1.20;;;1.00;;
6306;SDS011;3186;54.062;9.962;2023-04-01T06:04:55;1.60;;;1.00;;
6306;SDS011;3186;54.062;9.962;2023-04-01T06:07:35;1.33;;;0.90;;
6306;SDS011;3186;54.062;9.962;2023-04-01T06:10:01;1.40;;;0.80;;
6306;SDS011;3186;54.062;9.962;2023-04-01T06:23:38;3.70;;;1.00;;
6306;SDS011;3186;54.062;9.962;2023-04-01T06:26:11;0.93;;;0.80;;
6306;SDS011;3186;54.062;9.962;2023-04-01T06:54:03;1.27;;;0.83;;
6306;SDS011;3186;54.062;9.962;2023-04-01T06:56:50;0.80;;;0.80;;
6306;SDS011;3186;54.062;9.962;2023-04-01T06:59:28;0.70;;;0.67;;
6306;SDS011;3186;54.062;9.962;2023-04-01T07:02:22;0.77;;;0.70;;
6306;SDS011;3186;54.062;9.962;2023-04-01T07:04:50;1.27;;;0.80;;
6306;SDS011;3186;54.062;9.962;2023-04-01T07:07:21;1.47;;;0.80;;
6306;SDS011;3186;54.062;9.962;2023-04-01T07:09:59;0.80;;;0.80;;
6306;SDS011;3186;54.062;9.962;2023-04-01T07:15:28;0.70;;;0.70;;
6306;SDS011;3186;54.062;9.962;2023-04-01T07:18:17;1.33;;;0.97;;
6306;SDS011;3186;54.062;9.962;2023-04-01T07:20:49;0.83;;;0.83;;
6306;SDS011;3186;54.062;9.962;2023-04-01T07:23:24;1.57;;;1.00;;
6306;SDS011;3186;54.062;9.962;2023-04-01T07:26:23;0.83;;;0.80;;
6306;SDS011;3186;54.062;9.962;2023-04-01T07:29:12;1.20;;;0.90;;
6306;SDS011;3186;54.062;9.962;2023-04-01T07:34:30;0.80;;;0.80;;
6306;SDS011;3186;54.062;9.962;2023-04-01T07:37:21;0.60;;;0.60;;
6306;SDS011;3186;54.062;9.962;2023-04-01T07:42:41;1.23;;;0.93;;
6306;SDS011;3186;54.062;9.962;2023-04-01T07:48:08;1.63;;;0.93;;
6306;SDS011;3186;54.062;9.962;2023-04-01T07:51:00;0.80;;;0.70;;
6306;SDS011;3186;54.062;9.962;2023-04-01T07:56:27;1.20;;;0.80;;
6306;SDS011;3186;54.062;9.962;2023-04-01T07:59:23;0.80;;;0.80;;
6306;SDS011;3186;54.062;9.962;2023-04-01T08:05:21;1.17;;;0.73;;
6306;SDS011;3186;54.062;9.962;2023-04-01T08:08:09;1.90;;;0.80;;
6306;SDS011;3186;54.062;9.962;2023-04-01T08:14:02;1.17;;;0.90;;
6306;SDS011;3186;54.062;9.962;2023-04-01T08:22:51;1.63;;;0.80;;
6306;SDS011;3186;54.062;9.962;2023-04-01T08:25:37;1.13;;;0.93;;
6306;SDS011;3186;54.062;9.962;2023-04-01T08:33:55;1.23;;;0.80;;
6306;SDS011;3186;54.062;9.962;2023-04-01T08:36:29;0.80;;;0.80;;
6306;SDS011;3186;54.062;9.962;2023-04-01T08:39:10;1.83;;;0.70;;
6306;SDS011;3186;54.062;9.962;2023-04-01T08:47:52;2.90;;;0.97;;
6306;SDS011;3186;54.062;9.962;2023-04-01T08:50:40;1.70;;;1.03;;
6306;SDS011;3186;54.062;9.962;2023-04-01T08:56:40;1.63;;;0.90;;
6306;SDS011;3186;54.062;9.962;2023-04-01T08:59:27;3.00;;;1.00;;
6306;SDS011;3186;54.062;9.962;2023-04-01T09:17:41;5.80;;;1.43;;
6306;SDS011;3186;54.062;9.962;2023-04-01T09:20:17;2.10;;;1.27;;
6306;SDS011;3186;54.062;9.962;2023-04-01T09:51:16;4.80;;;1.80;;
6306;SDS011;3186;54.062;9.962;2023-04-01T09:59:35;3.27;;;1.77;;
6306;SDS011;3186;54.062;9.962;2023-04-01T10:17:00;4.43;;;2.30;;
6306;SDS011;3186;54.062;9.962;2023-04-01T10:22:13;7.10;;;2.80;;
6306;SDS011;3186;54.062;9.962;2023-04-01T10:28:03;5.93;;;2.60;;
6306;SDS011;3186;54.062;9.962;2023-04-01T10:40:24;5.57;;;3.10;;
6306;SDS011;3186;54.062;9.962;2023-04-01T10:54:59;5.87;;;3.53;;
6306;SDS011;3186;54.062;9.962;2023-04-01T11:30:46;7.57;;;4.37;;
6306;SDS011;3186;54.062;9.962;2023-04-01T11:42:20;8.40;;;3.70;;
6306;SDS011;3186;54.062;9.962;2023-04-01T11:45:44;8.67;;;4.03;;
6306;SDS011;3186;54.062;9.962;2023-04-01T11:48:25;8.17;;;4.20;;
6306;SDS011;3186;54.062;9.962;2023-04-01T11:59:38;11.07;;;3.93;;
6306;SDS011;3186;54.062;9.962;2023-04-01T12:05:03;9.27;;;3.70;;
6306;SDS011;3186;54.062;9.962;2023-04-01T12:07:51;9.47;;;3.70;;
6306;SDS011;3186;54.062;9.962;2023-04-01T12:16:43;5.93;;;3.90;;
6306;SDS011;3186;54.062;9.962;2023-04-01T12:22:12;8.90;;;4.47;;
6306;SDS011;3186;54.062;9.962;2023-04-01T12:30:35;6.27;;;3.83;;
6306;SDS011;3186;54.062;9.962;2023-04-01T12:52:49;9.07;;;4.27;;
6306;SDS011;3186;54.062;9.962;2023-04-01T12:58:18;8.43;;;4.80;;
6306;SDS011;3186;54.062;9.962;2023-04-01T13:01:29;12.90;;;4.77;;
6306;SDS011;3186;54.062;9.962;2023-04-01T13:04:10;12.53;;;4.80;;
6306;SDS011;3186;54.062;9.962;2023-04-01T13:17:38;9.23;;;4.17;;
6306;SDS011;3186;54.062;9.962;2023-04-01T13:26:12;7.80;;;4.47;;
6306;SDS011;3186;54.062;9.962;2023-04-01T13:37:01;9.17;;;4.60;;
6306;SDS011;3186;54.062;9.962;2023-04-01T13:42:57;10.10;;;4.27;;
6306;SDS011;3186;54.062;9.962;2023-04-01T13:45:35;9.93;;;4.00;;
6306;SDS011;3186;54.062;9.962;2023-04-01T14:04:59;8.33;;;4.23;;
6306;SDS011;3186;54.062;9.962;2023-04-01T14:08:47;7.40;;;3.97;;
6306;SDS011;3186;54.062;9.962;2023-04-01T14:51:31;7.80;;;3.50;;
6306;SDS011;3186;54.062;9.962;2023-04-01T14:54:08;8.13;;;3.57;;
6306;SDS011;3186;54.062;9.962;2023-04-01T14:56:48;9.77;;;3.57;;
6306;SDS011;3186;54.062;9.962;2023-04-01T15:09:56;7.20;;;3.43;;
6306;SDS011;3186;54.062;9.962;2023-04-01T15:18:31;7.43;;;3.27;;
6306;SDS011;3186;54.062;9.962;2023-04-01T15:24:10;6.00;;;3.43;;
6306;SDS011;3186;54.062;9.962;2023-04-01T15:27:15;5.53;;;2.63;;
6306;SDS011;3186;54.062;9.962;2023-04-01T15:32:39;4.93;;;3.10;;
6306;SDS011;3186;54.062;9.962;2023-04-01T15:37:58;5.23;;;3.07;;
6306;SDS011;3186;54.062;9.962;2023-04-01T15:40:45;11.23;;;3.20;;
6306;SDS011;3186;54.062;9.962;2023-04-01T15:43:29;5.90;;;2.53;;
6306;SDS011;3186;54.062;9.962;2023-04-01T15:54:16;10.23;;;3.40;;
6306;SDS011;3186;54.062;9.962;2023-04-01T16:02:31;10.13;;;3.07;;
6306;SDS011;3186;54.062;9.962;2023-04-01T16:10:49;4.00;;;2.27;;
6306;SDS011;3186;54.062;9.962;2023-04-01T16:21:53;7.17;;;3.00;;
6306;SDS011;3186;54.062;9.962;2023-04-01T16:24:24;6.13;;;3.07;;
6306;SDS011;3186;54.062;9.962;2023-04-01T16:26:57;2.70;;;2.17;;
6306;SDS011;3186;54.062;9.962;2023-04-01T16:35:36;7.00;;;2.53;;
6306;SDS011;3186;54.062;9.962;2023-04-01T16:41:31;6.20;;;2.80;;
6306;SDS011;3186;54.062;9.962;2023-04-01T16:44:13;6.73;;;2.53;;
6306;SDS011;3186;54.062;9.962;2023-04-01T16:46:59;4.57;;;2.50;;
6306;SDS011;3186;54.062;9.962;2023-04-01T16:49:39;5.63;;;2.30;;
6306;SDS011;3186;54.062;9.962;2023-04-01T16:54:59;5.17;;;2.40;;
6306;SDS011;3186;54.062;9.962;2023-04-01T17:00:30;5.53;;;2.60;;
6306;SDS011;3186;54.062;9.962;2023-04-01T17:03:07;4.80;;;2.40;;
6306;SDS011;3186;54.062;9.962;2023-04-01T17:05:52;7.77;;;2.70;;
6306;SDS011;3186;54.062;9.962;2023-04-01T17:08:36;5.00;;;2.17;;
6306;SDS011;3186;54.062;9.962;2023-04-01T17:17:08;4.67;;;2.80;;
6306;SDS011;3186;54.062;9.962;2023-04-01T17:23:14;5.27;;;2.23;;
6306;SDS011;3186;54.062;9.962;2023-04-01T17:31:52;7.33;;;2.30;;
6306;SDS011;3186;54.062;9.962;2023-04-01T17:37:38;7.57;;;2.40;;
6306;SDS011;3186;54.062;9.962;2023-04-01T17:46:02;4.80;;;2.53;;
6306;SDS011;3186;54.062;9.962;2023-04-01T17:48:49;8.07;;;2.30;;
6306;SDS011;3186;54.062;9.962;2023-04-01T17:54:37;8.00;;;2.60;;
6306;SDS011;3186;54.062;9.962;2023-04-01T17:57:10;9.77;;;2.50;;
6306;SDS011;3186;54.062;9.962;2023-04-01T18:08:13;7.97;;;2.77;;
6306;SDS011;3186;54.062;9.962;2023-04-01T18:21:50;10.80;;;3.17;;
6306;SDS011;3186;54.062;9.962;2023-04-01T18:24:56;10.27;;;3.40;;
6306;SDS011;3186;54.062;9.962;2023-04-01T18:27:24;5.67;;;2.83;;
6306;SDS011;3186;54.062;9.962;2023-04-01T18:32:44;8.50;;;2.60;;
6306;SDS011;3186;54.062;9.962;2023-04-01T18:35:34;6.63;;;2.17;;
6306;SDS011;3186;54.062;9.962;2023-04-01T18:38:13;10.67;;;2.60;;
6306;SDS011;3186;54.062;9.962;2023-04-01T18:45:54;5.23;;;2.10;;
6306;SDS011;3186;54.062;9.962;2023-04-01T18:51:03;5.17;;;1.97;;
6306;SDS011;3186;54.062;9.962;2023-04-01T18:53:38;4.07;;;2.00;;
6306;SDS011;3186;54.062;9.962;2023-04-01T18:56:09;4.40;;;2.00;;
6306;SDS011;3186;54.062;9.962;2023-04-01T19:04:33;5.03;;;1.90;;
6306;SDS011;3186;54.062;9.962;2023-04-01T19:07:20;3.83;;;2.00;;
6306;SDS011;3186;54.062;9.962;2023-04-01T19:27:10;5.03;;;2.03;;
6306;SDS011;3186;54.062;9.962;2023-04-01T19:32:37;4.20;;;2.30;;
6306;SDS011;3186;54.062;9.962;2023-04-01T19:41:01;3.67;;;2.10;;
6306;SDS011;3186;54.062;9.962;2023-04-01T19:46:16;5.20;;;2.17;;
6306;SDS011;3186;54.062;9.962;2023-04-01T19:59:51;5.47;;;1.83;;
6306;SDS011;3186;54.062;9.962;2023-04-01T20:05:03;2.73;;;1.90;;
6306;SDS011;3186;54.062;9.962;2023-04-01T20:07:47;6.13;;;2.03;;
6306;SDS011;3186;54.062;9.962;2023-04-01T20:10:22;4.07;;;2.07;;
6306;SDS011;3186;54.062;9.962;2023-04-01T20:16:08;5.43;;;2.37;;
6306;SDS011;3186;54.062;9.962;2023-04-01T20:18:47;6.13;;;2.00;;
6306;SDS011;3186;54.062;9.962;2023-04-01T20:23:54;8.73;;;2.60;;
6306;SDS011;3186;54.062;9.962;2023-04-01T20:26:29;4.83;;;1.77;;
6306;SDS011;3186;54.062;9.962;2023-04-01T20:31:44;8.10;;;2.47;;
6306;SDS011;3186;54.062;9.962;2023-04-01T20:48:39;6.60;;;2.37;;
6306;SDS011;3186;54.062;9.962;2023-04-01T20:51:15;3.87;;;1.90;;
6306;SDS011;3186;54.062;9.962;2023-04-01T20:53:50;4.17;;;1.93;;
6306;SDS011;3186;54.062;9.962;2023-04-01T21:04:22;3.43;;;1.50;;
6306;SDS011;3186;54.062;9.962;2023-04-01T21:07:10;3.70;;;1.80;;
6306;SDS011;3186;54.062;9.962;2023-04-01T21:10:04;4.50;;;2.07;;
6306;SDS011;3186;54.062;9.962;2023-04-01T21:13:02;3.90;;;1.50;;
6306;SDS011;3186;54.062;9.962;2023-04-01T21:30:04;4.40;;;1.90;;
6306;SDS011;3186;54.062;9.962;2023-04-01T21:54:26;4.10;;;2.20;;
6306;SDS011;3186;54.062;9.962;2023-04-01T22:13:50;6.07;;;1.90;;
6306;SDS011;3186;54.062;9.962;2023-04-01T22:16:30;5.63;;;2.10;;
6306;SDS011;3186;54.062;9.962;2023-04-01T22:19:15;3.57;;;1.50;;
6306;SDS011;3186;54.062;9.962;2023-04-01T22:22:01;6.43;;;1.40;;
6306;SDS011;3186;54.062;9.962;2023-04-01T22:24:54;4.73;;;1.60;;
6306;SDS011;3186;54.062;9.962;2023-04-01T22:30:31;7.37;;;1.97;;
6306;SDS011;3186;54.062;9.962;2023-04-01T22:33:14;3.30;;;1.57;;
6306;SDS011;3186;54.062;9.962;2023-04-01T22:44:05;5.20;;;1.83;;
6306;SDS011;3186;54.062;9.962;2023-04-01T22:49:47;6.57;;;1.77;;
6306;SDS011;3186;54.062;9.962;2023-04-01T22:52:31;6.37;;;1.83;;
6306;SDS011;3186;54.062;9.962;2023-04-01T23:00:39;3.17;;;1.53;;
6306;SDS011;3186;54.062;9.962;2023-04-01T23:19:24;5.37;;;1.50;;
6306;SDS011;3186;54.062;9.962;2023-04-01T23:21:59;4.60;;;1.83;;
6306;SDS011;3186;54.062;9.962;2023-04-01T23:24:47;3.97;;;1.50;;
6306;SDS011;3186;54.062;9.962;2023-04-01T23:29:56;4.70;;;1.37;;
6306;SDS011;3186;54.062;9.962;2023-04-01T23:32:22;4.67;;;1.70;;
6306;SDS011;3186;54.062;9.962;2023-04-01T23:34:52;3.30;;;1.70;;
6306;SDS011;3186;54.062;9.962;2023-04-01T23:37:20;3.23;;;1.40;;
6306;SDS011;3186;54.062;9.962;2023-04-01T23:39:51;4.83;;;1.30;;
6306;SDS011;3186;54.062;9.962;2023-04-01T23:47:42;5.37;;;1.50;;
6306;SDS011;3186;54.062;9.962;2023-04-01T23:50:15;4.67;;;1.87;;
6306;SDS011;3186;54.062;9.962;2023-04-01T23:53:03;4.37;;;1.60;;
6306;SDS011;3186;54.062;9.962;2023-04-01T23:55:38;1.97;;;1.20;;
